sensor_id;sensor_type;location;lat;lon;timestamp;P1;durP1;ratioP1;P2;durP2;ratioP2
11951;SDS011;6036;41.840;23.486;2022-11-20T00:00:00;4.68;;;2.05;;
11951;SDS011;6036;41.840;23.486;2022-11-20T00:02:25;1.40;;;1.05;;
11951;SDS011;6036;41.840;23.486;2022-11-20T00:04:51;1.65;;;0.70;;
11951;SDS011;6036;41.840;23.486;2022-11-20T00:07:16;1.58;;;1.05;;
11951;SDS011;6036;41.840;23.486;2022-11-20T00:09:42;4.55;;;0.88;;
11951;SDS011;6036;41.840;23.486;2022-11-20T00:12:07;1.35;;;1.08;;
11951;SDS011;6036;41.840;23.486;2022-11-20T00:14:33;3.80;;;1.20;;
11951;SDS011;6036;41.840;23.486;2022-11-20T00:16:58;3.50;;;1.65;;
11951;SDS011;6036;41.840;23.486;2022-11-20T00:19:24;4.90;;;1.70;;
11951;SDS011;6036;41.840;23.486;2022-11-20T00:21:49;2.13;;;1.00;;
11951;SDS011;6036;41.840;23.486;2022-11-20T00:24:16;4.10;;;1.30;;
11951;SDS011;6036;41.840;23.486;2022-11-20T00:26:41;3.20;;;1.38;;
11951;SDS011;6036;41.840;23.486;2022-11-20T00:29:08;1.55;;;0.80;;
11951;SDS011;6036;41.840;23.486;2022-11-20T00:31:34;1.48;;;0.80;;
11951;SDS011;6036;41.840;23.486;2022-11-20T00:34:00;1.05;;;0.70;;
11951;SDS011;6036;41.840;23.486;2022-11-20T00:36:26;2.58;;;0.70;;
11951;SDS011;6036;41.840;23.486;2022-11-20T00:38:54;0.70;;;0.50;;
11951;SDS011;6036;41.840;23.486;2022-11-20T00:41:22;0.95;;;0.55;;
11951;SDS011;6036;41.840;23.486;2022-11-20T00:43:48;1.75;;;0.50;;
11951;SDS011;6036;41.840;23.486;2022-11-20T00:46:17;3.50;;;0.88;;
11951;SDS011;6036;41.840;23.486;2022-11-20T00:48:44;1.40;;;0.38;;
11951;SDS011;6036;41.840;23.486;2022-11-20T00:51:11;1.63;;;0.40;;
11951;SDS011;6036;41.840;23.486;2022-11-20T00:53:41;0.88;;;0.40;;
11951;SDS011;6036;41.840;23.486;2022-11-20T00:56:07;1.10;;;0.40;;
11951;SDS011;6036;41.840;23.486;2022-11-20T00:58:39;0.95;;;0.25;;
11951;SDS011;6036;41.840;23.486;2022-11-20T01:01:13;1.50;;;0.20;;
11951;SDS011;6036;41.840;23.486;2022-11-20T01:03:41;0.88;;;0.20;;
11951;SDS011;6036;41.840;23.486;2022-11-20T01:08:36;1.05;;;0.30;;
11951;SDS011;6036;41.840;23.486;2022-11-20T01:11:05;1.65;;;0.20;;
11951;SDS011;6036;41.840;23.486;2022-11-20T01:13:32;0.13;;;0.13;;
11951;SDS011;6036;41.840;23.486;2022-11-20T01:18:31;0.30;;;0.10;;
11951;SDS011;6036;41.840;23.486;2022-11-20T01:21:00;0.47;;;0.10;;
11951;SDS011;6036;41.840;23.486;2022-11-20T01:23:30;0.50;;;0.10;;
11951;SDS011;6036;41.840;23.486;2022-11-20T01:25:56;1.10;;;0.77;;
11951;SDS011;6036;41.840;23.486;2022-11-20T01:28:21;0.65;;;0.30;;
11951;SDS011;6036;41.840;23.486;2022-11-20T01:30:47;0.20;;;0.20;;
11951;SDS011;6036;41.840;23.486;2022-11-20T01:33:12;2.17;;;0.20;;
11951;SDS011;6036;41.840;23.486;2022-11-20T01:35:37;0.40;;;0.20;;
11951;SDS011;6036;41.840;23.486;2022-11-20T01:38:03;0.50;;;0.32;;
11951;SDS011;6036;41.840;23.486;2022-11-20T01:40:28;0.73;;;0.30;;
11951;SDS011;6036;41.840;23.486;2022-11-20T01:42:58;2.13;;;0.40;;
11951;SDS011;6036;41.840;23.486;2022-11-20T01:45:56;0.52;;;0.45;;
11951;SDS011;6036;41.840;23.486;2022-11-20T01:48:36;1.75;;;0.57;;
11951;SDS011;6036;41.840;23.486;2022-11-20T01:51:12;1.77;;;0.63;;
11951;SDS011;6036;41.840;23.486;2022-11-20T01:53:52;1.75;;;1.15;;
11951;SDS011;6036;41.840;23.486;2022-11-20T01:56:21;0.60;;;0.60;;
11951;SDS011;6036;41.840;23.486;2022-11-20T01:58:51;1.65;;;0.65;;
11951;SDS011;6036;41.840;23.486;2022-11-20T02:01:21;0.40;;;0.30;;
11951;SDS011;6036;41.840;23.486;2022-11-20T02:03:47;0.95;;;0.28;;
11951;SDS011;6036;41.840;23.486;2022-11-20T02:09:15;2.25;;;0.60;;
11951;SDS011;6036;41.840;23.486;2022-11-20T02:11:41;0.60;;;0.40;;
11951;SDS011;6036;41.840;23.486;2022-11-20T02:14:06;1.50;;;0.65;;
11951;SDS011;6036;41.840;23.486;2022-11-20T02:16:39;0.85;;;0.32;;
11951;SDS011;6036;41.840;23.486;2022-11-20T02:19:12;2.00;;;0.43;;
11951;SDS011;6036;41.840;23.486;2022-11-20T02:22:07;1.63;;;0.95;;
11951;SDS011;6036;41.840;23.486;2022-11-20T02:24:38;1.23;;;0.50;;
11951;SDS011;6036;41.840;23.486;2022-11-20T02:27:06;1.40;;;0.28;;
11951;SDS011;6036;41.840;23.486;2022-11-20T02:34:44;0.85;;;0.30;;
11951;SDS011;6036;41.840;23.486;2022-11-20T02:37:09;3.08;;;1.20;;
11951;SDS011;6036;41.840;23.486;2022-11-20T02:39:35;2.13;;;0.57;;
11951;SDS011;6036;41.840;23.486;2022-11-20T02:42:01;2.15;;;0.70;;
11951;SDS011;6036;41.840;23.486;2022-11-20T02:44:27;1.13;;;0.63;;
11951;SDS011;6036;41.840;23.486;2022-11-20T02:46:52;1.77;;;0.50;;
11951;SDS011;6036;41.840;23.486;2022-11-20T02:49:18;2.10;;;0.60;;
11951;SDS011;6036;41.840;23.486;2022-11-20T02:51:43;1.80;;;0.30;;
11951;SDS011;6036;41.840;23.486;2022-11-20T02:54:09;2.20;;;0.47;;
11951;SDS011;6036;41.840;23.486;2022-11-20T02:56:34;0.77;;;0.63;;
11951;SDS011;6036;41.840;23.486;2022-11-20T02:59:03;0.75;;;0.43;;
11951;SDS011;6036;41.840;23.486;2022-11-20T03:01:29;3.22;;;0.73;;
11951;SDS011;6036;41.840;23.486;2022-11-20T03:03:54;1.38;;;0.60;;
11951;SDS011;6036;41.840;23.486;2022-11-20T03:06:21;2.80;;;0.85;;
11951;SDS011;6036;41.840;23.486;2022-11-20T03:08:46;2.80;;;1.52;;
11951;SDS011;6036;41.840;23.486;2022-11-20T03:11:12;2.00;;;0.77;;
11951;SDS011;6036;41.840;23.486;2022-11-20T03:13:38;3.20;;;1.08;;
11951;SDS011;6036;41.840;23.486;2022-11-20T03:16:13;3.08;;;1.13;;
11951;SDS011;6036;41.840;23.486;2022-11-20T03:18:41;3.45;;;0.90;;
11951;SDS011;6036;41.840;23.486;2022-11-20T03:21:08;5.78;;;1.90;;
11951;SDS011;6036;41.840;23.486;2022-11-20T03:23:35;2.45;;;1.15;;
11951;SDS011;6036;41.840;23.486;2022-11-20T03:26:14;5.13;;;1.33;;
11951;SDS011;6036;41.840;23.486;2022-11-20T03:28:40;2.47;;;1.17;;
11951;SDS011;6036;41.840;23.486;2022-11-20T03:31:11;5.25;;;0.90;;
11951;SDS011;6036;41.840;23.486;2022-11-20T03:33:38;5.28;;;1.42;;
11951;SDS011;6036;41.840;23.486;2022-11-20T03:36:05;5.63;;;1.10;;
11951;SDS011;6036;41.840;23.486;2022-11-20T03:38:33;4.03;;;1.52;;
11951;SDS011;6036;41.840;23.486;2022-11-20T03:40:59;2.95;;;0.93;;
11951;SDS011;6036;41.840;23.486;2022-11-20T03:43:25;2.95;;;1.15;;
11951;SDS011;6036;41.840;23.486;2022-11-20T03:45:51;7.80;;;1.42;;
11951;SDS011;6036;41.840;23.486;2022-11-20T03:48:17;2.63;;;0.85;;
11951;SDS011;6036;41.840;23.486;2022-11-20T03:50:42;4.18;;;1.10;;
11951;SDS011;6036;41.840;23.486;2022-11-20T03:53:08;4.15;;;1.05;;
11951;SDS011;6036;41.840;23.486;2022-11-20T03:55:33;2.13;;;1.00;;
11951;SDS011;6036;41.840;23.486;2022-11-20T03:57:58;7.43;;;1.73;;
11951;SDS011;6036;41.840;23.486;2022-11-20T04:00:24;2.67;;;0.75;;
11951;SDS011;6036;41.840;23.486;2022-11-20T04:02:49;3.33;;;0.85;;
11951;SDS011;6036;41.840;23.486;2022-11-20T04:05:15;3.65;;;0.80;;
11951;SDS011;6036;41.840;23.486;2022-11-20T04:07:40;1.20;;;0.70;;
11951;SDS011;6036;41.840;23.486;2022-11-20T04:10:05;2.38;;;1.30;;
11951;SDS011;6036;41.840;23.486;2022-11-20T04:12:32;2.10;;;0.73;;
11951;SDS011;6036;41.840;23.486;2022-11-20T04:14:58;1.95;;;0.85;;
11951;SDS011;6036;41.840;23.486;2022-11-20T04:17:24;0.70;;;0.70;;
11951;SDS011;6036;41.840;23.486;2022-11-20T04:19:49;1.65;;;0.60;;
11951;SDS011;6036;41.840;23.486;2022-11-20T04:22:14;2.00;;;0.75;;
11951;SDS011;6036;41.840;23.486;2022-11-20T04:24:40;1.30;;;0.70;;
11951;SDS011;6036;41.840;23.486;2022-11-20T04:27:06;2.83;;;1.05;;
11951;SDS011;6036;41.840;23.486;2022-11-20T04:29:31;11.10;;;6.40;;
11951;SDS011;6036;41.840;23.486;2022-11-20T04:31:56;12.10;;;7.82;;
11951;SDS011;6036;41.840;23.486;2022-11-20T04:34:22;9.18;;;5.57;;
11951;SDS011;6036;41.840;23.486;2022-11-20T04:36:47;7.70;;;4.15;;
11951;SDS011;6036;41.840;23.486;2022-11-20T04:39:13;3.97;;;3.03;;
11951;SDS011;6036;41.840;23.486;2022-11-20T04:41:40;7.65;;;3.20;;
11951;SDS011;6036;41.840;23.486;2022-11-20T04:44:05;4.13;;;2.50;;
11951;SDS011;6036;41.840;23.486;2022-11-20T04:46:32;3.22;;;2.00;;
11951;SDS011;6036;41.840;23.486;2022-11-20T04:49:02;7.68;;;2.28;;
11951;SDS011;6036;41.840;23.486;2022-11-20T04:51:28;3.33;;;1.73;;
11951;SDS011;6036;41.840;23.486;2022-11-20T04:53:54;4.50;;;1.40;;
11951;SDS011;6036;41.840;23.486;2022-11-20T04:56:19;4.45;;;2.22;;
11951;SDS011;6036;41.840;23.486;2022-11-20T04:58:45;6.22;;;2.58;;
11951;SDS011;6036;41.840;23.486;2022-11-20T05:01:18;7.32;;;2.53;;
11951;SDS011;6036;41.840;23.486;2022-11-20T05:03:45;4.07;;;2.83;;
11951;SDS011;6036;41.840;23.486;2022-11-20T05:06:13;4.28;;;2.65;;
11951;SDS011;6036;41.840;23.486;2022-11-20T05:08:40;6.15;;;3.15;;
11951;SDS011;6036;41.840;23.486;2022-11-20T05:11:07;5.05;;;3.30;;
11951;SDS011;6036;41.840;23.486;2022-11-20T05:13:34;5.18;;;2.40;;
11951;SDS011;6036;41.840;23.486;2022-11-20T05:16:03;18.60;;;7.47;;
11951;SDS011;6036;41.840;23.486;2022-11-20T05:18:34;9.45;;;6.05;;
11951;SDS011;6036;41.840;23.486;2022-11-20T05:21:00;13.55;;;5.40;;
11951;SDS011;6036;41.840;23.486;2022-11-20T05:23:26;15.70;;;6.63;;
11951;SDS011;6036;41.840;23.486;2022-11-20T05:25:52;8.23;;;5.45;;
11951;SDS011;6036;41.840;23.486;2022-11-20T05:28:18;9.20;;;4.68;;
11951;SDS011;6036;41.840;23.486;2022-11-20T05:30:44;6.78;;;4.07;;
11951;SDS011;6036;41.840;23.486;2022-11-20T05:33:09;6.97;;;3.13;;
11951;SDS011;6036;41.840;23.486;2022-11-20T05:35:35;5.88;;;1.90;;
11951;SDS011;6036;41.840;23.486;2022-11-20T05:38:00;5.28;;;1.48;;
11951;SDS011;6036;41.840;23.486;2022-11-20T05:40:26;3.30;;;1.35;;
11951;SDS011;6036;41.840;23.486;2022-11-20T05:42:51;3.72;;;1.30;;
11951;SDS011;6036;41.840;23.486;2022-11-20T05:45:16;6.53;;;2.28;;
11951;SDS011;6036;41.840;23.486;2022-11-20T05:47:42;5.40;;;2.00;;
11951;SDS011;6036;41.840;23.486;2022-11-20T05:50:07;5.03;;;2.30;;
11951;SDS011;6036;41.840;23.486;2022-11-20T05:52:33;3.33;;;2.13;;
11951;SDS011;6036;41.840;23.486;2022-11-20T05:54:58;1.77;;;1.15;;
11951;SDS011;6036;41.840;23.486;2022-11-20T05:57:23;2.42;;;1.60;;
11951;SDS011;6036;41.840;23.486;2022-11-20T05:59:49;4.93;;;1.48;;
11951;SDS011;6036;41.840;23.486;2022-11-20T06:02:14;4.57;;;1.42;;
11951;SDS011;6036;41.840;23.486;2022-11-20T06:04:40;8.13;;;3.38;;
11951;SDS011;6036;41.840;23.486;2022-11-20T06:07:05;11.07;;;4.80;;
11951;SDS011;6036;41.840;23.486;2022-11-20T06:09:31;14.18;;;7.20;;
11951;SDS011;6036;41.840;23.486;2022-11-20T06:11:57;13.65;;;6.93;;
11951;SDS011;6036;41.840;23.486;2022-11-20T06:14:22;7.88;;;4.93;;
11951;SDS011;6036;41.840;23.486;2022-11-20T06:16:48;7.63;;;3.63;;
11951;SDS011;6036;41.840;23.486;2022-11-20T06:19:13;6.10;;;2.08;;
11951;SDS011;6036;41.840;23.486;2022-11-20T06:21:39;4.15;;;1.98;;
11951;SDS011;6036;41.840;23.486;2022-11-20T06:24:05;5.03;;;2.10;;
11951;SDS011;6036;41.840;23.486;2022-11-20T06:26:31;1.65;;;1.52;;
11951;SDS011;6036;41.840;23.486;2022-11-20T06:28:56;4.90;;;1.40;;
11951;SDS011;6036;41.840;23.486;2022-11-20T06:31:22;5.30;;;1.60;;
11951;SDS011;6036;41.840;23.486;2022-11-20T06:33:49;2.80;;;1.55;;
11951;SDS011;6036;41.840;23.486;2022-11-20T06:36:16;6.47;;;1.58;;
11951;SDS011;6036;41.840;23.486;2022-11-20T06:38:43;5.32;;;2.35;;
11951;SDS011;6036;41.840;23.486;2022-11-20T06:41:14;3.75;;;2.22;;
11951;SDS011;6036;41.840;23.486;2022-11-20T06:43:42;5.75;;;1.60;;
11951;SDS011;6036;41.840;23.486;2022-11-20T06:46:08;3.13;;;1.80;;
11951;SDS011;6036;41.840;23.486;2022-11-20T06:48:35;3.60;;;1.33;;
11951;SDS011;6036;41.840;23.486;2022-11-20T06:51:02;3.90;;;1.10;;
11951;SDS011;6036;41.840;23.486;2022-11-20T06:53:29;6.82;;;2.45;;
11951;SDS011;6036;41.840;23.486;2022-11-20T06:55:55;4.80;;;1.23;;
11951;SDS011;6036;41.840;23.486;2022-11-20T06:58:21;4.25;;;1.20;;
11951;SDS011;6036;41.840;23.486;2022-11-20T07:00:47;3.40;;;1.35;;
11951;SDS011;6036;41.840;23.486;2022-11-20T07:03:12;3.38;;;2.00;;
11951;SDS011;6036;41.840;23.486;2022-11-20T07:05:38;3.58;;;1.20;;
11951;SDS011;6036;41.840;23.486;2022-11-20T07:08:04;2.13;;;1.27;;
11951;SDS011;6036;41.840;23.486;2022-11-20T07:10:30;2.45;;;1.40;;
11951;SDS011;6036;41.840;23.486;2022-11-20T07:12:57;3.25;;;1.83;;
11951;SDS011;6036;41.840;23.486;2022-11-20T07:15:22;2.08;;;1.13;;
11951;SDS011;6036;41.840;23.486;2022-11-20T07:17:49;7.82;;;1.60;;
11951;SDS011;6036;41.840;23.486;2022-11-20T07:20:15;3.78;;;1.30;;
11951;SDS011;6036;41.840;23.486;2022-11-20T07:22:41;3.78;;;0.85;;
11951;SDS011;6036;41.840;23.486;2022-11-20T07:25:07;5.82;;;1.45;;
11951;SDS011;6036;41.840;23.486;2022-11-20T07:27:33;3.30;;;1.73;;
11951;SDS011;6036;41.840;23.486;2022-11-20T07:29:59;6.90;;;2.00;;
11951;SDS011;6036;41.840;23.486;2022-11-20T07:32:25;6.72;;;1.60;;
11951;SDS011;6036;41.840;23.486;2022-11-20T07:34:50;11.68;;;2.38;;
11951;SDS011;6036;41.840;23.486;2022-11-20T07:37:16;4.63;;;1.33;;
11951;SDS011;6036;41.840;23.486;2022-11-20T07:39:42;5.03;;;1.48;;
11951;SDS011;6036;41.840;23.486;2022-11-20T07:42:08;2.65;;;1.58;;
11951;SDS011;6036;41.840;23.486;2022-11-20T07:44:34;4.07;;;1.60;;
11951;SDS011;6036;41.840;23.486;2022-11-20T07:46:59;5.70;;;2.10;;
11951;SDS011;6036;41.840;23.486;2022-11-20T07:49:25;4.85;;;1.98;;
11951;SDS011;6036;41.840;23.486;2022-11-20T07:51:51;6.93;;;1.92;;
11951;SDS011;6036;41.840;23.486;2022-11-20T07:54:18;8.73;;;1.48;;
11951;SDS011;6036;41.840;23.486;2022-11-20T07:56:44;4.18;;;1.55;;
11951;SDS011;6036;41.840;23.486;2022-11-20T07:59:10;5.50;;;1.80;;
11951;SDS011;6036;41.840;23.486;2022-11-20T08:01:37;5.20;;;1.20;;
11951;SDS011;6036;41.840;23.486;2022-11-20T08:04:02;3.45;;;1.25;;
11951;SDS011;6036;41.840;23.486;2022-11-20T08:06:28;3.38;;;1.48;;
11951;SDS011;6036;41.840;23.486;2022-11-20T08:08:53;1.80;;;1.10;;
11951;SDS011;6036;41.840;23.486;2022-11-20T08:11:19;11.27;;;1.38;;
11951;SDS011;6036;41.840;23.486;2022-11-20T08:14:03;3.30;;;1.23;;
11951;SDS011;6036;41.840;23.486;2022-11-20T08:16:41;4.13;;;1.38;;
11951;SDS011;6036;41.840;23.486;2022-11-20T08:19:11;9.65;;;2.35;;
11951;SDS011;6036;41.840;23.486;2022-11-20T08:21:38;7.72;;;1.45;;
11951;SDS011;6036;41.840;23.486;2022-11-20T08:24:03;3.53;;;1.30;;
11951;SDS011;6036;41.840;23.486;2022-11-20T08:26:29;5.43;;;1.92;;
11951;SDS011;6036;41.840;23.486;2022-11-20T08:28:55;4.32;;;2.08;;
11951;SDS011;6036;41.840;23.486;2022-11-20T08:31:22;5.28;;;1.42;;
11951;SDS011;6036;41.840;23.486;2022-11-20T08:33:49;6.70;;;1.63;;
11951;SDS011;6036;41.840;23.486;2022-11-20T08:36:15;11.05;;;1.70;;
11951;SDS011;6036;41.840;23.486;2022-11-20T08:38:41;8.23;;;2.38;;
11951;SDS011;6036;41.840;23.486;2022-11-20T08:41:06;3.72;;;1.40;;
11951;SDS011;6036;41.840;23.486;2022-11-20T08:43:51;11.50;;;2.03;;
11951;SDS011;6036;41.840;23.486;2022-11-20T08:46:21;5.80;;;1.92;;
11951;SDS011;6036;41.840;23.486;2022-11-20T08:48:47;4.22;;;1.52;;
11951;SDS011;6036;41.840;23.486;2022-11-20T08:51:13;5.80;;;1.50;;
11951;SDS011;6036;41.840;23.486;2022-11-20T08:53:39;3.22;;;1.45;;
11951;SDS011;6036;41.840;23.486;2022-11-20T08:56:05;6.15;;;1.70;;
11951;SDS011;6036;41.840;23.486;2022-11-20T08:58:31;11.60;;;2.97;;
11951;SDS011;6036;41.840;23.486;2022-11-20T09:00:56;4.82;;;2.33;;
11951;SDS011;6036;41.840;23.486;2022-11-20T09:03:22;6.03;;;1.92;;
11951;SDS011;6036;41.840;23.486;2022-11-20T09:05:47;5.65;;;2.17;;
11951;SDS011;6036;41.840;23.486;2022-11-20T09:08:13;4.90;;;1.20;;
11951;SDS011;6036;41.840;23.486;2022-11-20T09:10:38;5.97;;;2.35;;
11951;SDS011;6036;41.840;23.486;2022-11-20T09:13:06;6.53;;;2.08;;
11951;SDS011;6036;41.840;23.486;2022-11-20T09:15:32;6.18;;;2.47;;
11951;SDS011;6036;41.840;23.486;2022-11-20T09:17:59;2.45;;;1.50;;
11951;SDS011;6036;41.840;23.486;2022-11-20T09:20:28;7.35;;;1.50;;
11951;SDS011;6036;41.840;23.486;2022-11-20T09:22:54;4.03;;;2.10;;
11951;SDS011;6036;41.840;23.486;2022-11-20T09:25:20;5.45;;;2.28;;
11951;SDS011;6036;41.840;23.486;2022-11-20T09:27:46;6.07;;;1.90;;
11951;SDS011;6036;41.840;23.486;2022-11-20T09:30:12;11.20;;;2.20;;
11951;SDS011;6036;41.840;23.486;2022-11-20T09:32:39;7.55;;;2.13;;
11951;SDS011;6036;41.840;23.486;2022-11-20T09:35:05;7.32;;;1.88;;
11951;SDS011;6036;41.840;23.486;2022-11-20T09:37:30;3.75;;;1.45;;
11951;SDS011;6036;41.840;23.486;2022-11-20T09:39:56;8.50;;;2.30;;
11951;SDS011;6036;41.840;23.486;2022-11-20T09:50:53;9.68;;;3.28;;
11951;SDS011;6036;41.840;23.486;2022-11-20T09:53:53;10.35;;;2.70;;
11951;SDS011;6036;41.840;23.486;2022-11-20T09:56:30;8.25;;;1.80;;
11951;SDS011;6036;41.840;23.486;2022-11-20T09:58:59;7.78;;;1.90;;
11951;SDS011;6036;41.840;23.486;2022-11-20T10:01:30;10.85;;;2.33;;
11951;SDS011;6036;41.840;23.486;2022-11-20T10:06:50;8.40;;;3.40;;
11951;SDS011;6036;41.840;23.486;2022-11-20T10:09:35;7.35;;;2.15;;
11951;SDS011;6036;41.840;23.486;2022-11-20T10:12:17;6.85;;;2.03;;
11951;SDS011;6036;41.840;23.486;2022-11-20T10:17:41;6.90;;;3.42;;
11951;SDS011;6036;41.840;23.486;2022-11-20T10:28:09;5.43;;;2.40;;
11951;SDS011;6036;41.840;23.486;2022-11-20T10:30:59;6.03;;;2.78;;
11951;SDS011;6036;41.840;23.486;2022-11-20T10:33:29;6.75;;;2.10;;
11951;SDS011;6036;41.840;23.486;2022-11-20T10:38:45;10.55;;;2.63;;
11951;SDS011;6036;41.840;23.486;2022-11-20T10:41:23;4.63;;;1.83;;
11951;SDS011;6036;41.840;23.486;2022-11-20T10:44:05;11.07;;;3.38;;
11951;SDS011;6036;41.840;23.486;2022-11-20T10:47:00;10.57;;;2.60;;
11951;SDS011;6036;41.840;23.486;2022-11-20T10:49:26;10.00;;;2.28;;
11951;SDS011;6036;41.840;23.486;2022-11-20T10:54:52;9.98;;;2.13;;
11951;SDS011;6036;41.840;23.486;2022-11-20T11:00:06;5.65;;;2.20;;
11951;SDS011;6036;41.840;23.486;2022-11-20T11:07:51;6.57;;;2.20;;
11951;SDS011;6036;41.840;23.486;2022-11-20T11:10:28;10.38;;;2.17;;
11951;SDS011;6036;41.840;23.486;2022-11-20T11:12:57;4.40;;;2.55;;
11951;SDS011;6036;41.840;23.486;2022-11-20T11:18:05;11.00;;;2.58;;
11951;SDS011;6036;41.840;23.486;2022-11-20T11:20:33;10.18;;;3.08;;
11951;SDS011;6036;41.840;23.486;2022-11-20T11:22:59;7.35;;;2.03;;
11951;SDS011;6036;41.840;23.486;2022-11-20T11:28:02;5.43;;;1.52;;
11951;SDS011;6036;41.840;23.486;2022-11-20T11:30:51;6.68;;;1.80;;
11951;SDS011;6036;41.840;23.486;2022-11-20T11:33:20;7.78;;;1.92;;
11951;SDS011;6036;41.840;23.486;2022-11-20T11:36:01;4.70;;;1.65;;
11951;SDS011;6036;41.840;23.486;2022-11-20T11:38:34;7.10;;;2.35;;
11951;SDS011;6036;41.840;23.486;2022-11-20T11:41:03;6.05;;;2.45;;
11951;SDS011;6036;41.840;23.486;2022-11-20T11:43:31;5.55;;;2.50;;
11951;SDS011;6036;41.840;23.486;2022-11-20T11:46:23;4.53;;;2.17;;
11951;SDS011;6036;41.840;23.486;2022-11-20T11:48:56;5.00;;;1.80;;
11951;SDS011;6036;41.840;23.486;2022-11-20T12:00:13;7.05;;;2.53;;
11951;SDS011;6036;41.840;23.486;2022-11-20T12:15:55;9.43;;;3.80;;
11951;SDS011;6036;41.840;23.486;2022-11-20T12:18:21;9.57;;;3.30;;
11951;SDS011;6036;41.840;23.486;2022-11-20T12:21:01;7.90;;;3.20;;
11951;SDS011;6036;41.840;23.486;2022-11-20T12:26:06;5.63;;;2.55;;
11951;SDS011;6036;41.840;23.486;2022-11-20T12:31:48;7.70;;;2.75;;
11951;SDS011;6036;41.840;23.486;2022-11-20T12:35:20;8.43;;;2.70;;
11951;SDS011;6036;41.840;23.486;2022-11-20T12:43:22;10.23;;;3.85;;
11951;SDS011;6036;41.840;23.486;2022-11-20T12:46:10;12.35;;;3.25;;
11951;SDS011;6036;41.840;23.486;2022-11-20T12:48:59;4.18;;;2.33;;
11951;SDS011;6036;41.840;23.486;2022-11-20T12:51:43;6.45;;;2.45;;
11951;SDS011;6036;41.840;23.486;2022-11-20T13:07:38;7.03;;;4.80;;
11951;SDS011;6036;41.840;23.486;2022-11-20T13:10:13;4.95;;;3.53;;
11951;SDS011;6036;41.840;23.486;2022-11-20T13:13:25;10.25;;;4.78;;
11951;SDS011;6036;41.840;23.486;2022-11-20T13:18:24;15.90;;;9.90;;
11951;SDS011;6036;41.840;23.486;2022-11-20T13:20:50;17.27;;;9.55;;
11951;SDS011;6036;41.840;23.486;2022-11-20T13:23:23;11.60;;;6.88;;
11951;SDS011;6036;41.840;23.486;2022-11-20T13:26:02;11.70;;;5.32;;
11951;SDS011;6036;41.840;23.486;2022-11-20T13:28:39;10.77;;;5.93;;
11951;SDS011;6036;41.840;23.486;2022-11-20T13:31:09;9.73;;;5.15;;
11951;SDS011;6036;41.840;23.486;2022-11-20T13:33:50;5.80;;;3.30;;
11951;SDS011;6036;41.840;23.486;2022-11-20T13:36:24;8.88;;;3.80;;
11951;SDS011;6036;41.840;23.486;2022-11-20T13:38:52;9.00;;;2.75;;
11951;SDS011;6036;41.840;23.486;2022-11-20T13:41:32;6.38;;;3.22;;
11951;SDS011;6036;41.840;23.486;2022-11-20T13:44:06;8.85;;;1.90;;
11951;SDS011;6036;41.840;23.486;2022-11-20T13:46:55;2.78;;;1.70;;
11951;SDS011;6036;41.840;23.486;2022-11-20T13:49:25;5.82;;;1.65;;
11951;SDS011;6036;41.840;23.486;2022-11-20T13:52:02;3.70;;;1.70;;
11951;SDS011;6036;41.840;23.486;2022-11-20T13:54:55;5.00;;;2.28;;
11951;SDS011;6036;41.840;23.486;2022-11-20T14:00:18;3.17;;;0.73;;
11951;SDS011;6036;41.840;23.486;2022-11-20T14:05:35;2.85;;;0.70;;
11951;SDS011;6036;41.840;23.486;2022-11-20T14:08:04;1.98;;;0.85;;
11951;SDS011;6036;41.840;23.486;2022-11-20T14:10:31;3.28;;;1.10;;
11951;SDS011;6036;41.840;23.486;2022-11-20T14:12:57;2.80;;;0.77;;
11951;SDS011;6036;41.840;23.486;2022-11-20T14:15:30;3.28;;;0.90;;
11951;SDS011;6036;41.840;23.486;2022-11-20T14:17:58;0.95;;;0.73;;
11951;SDS011;6036;41.840;23.486;2022-11-20T14:20:27;2.78;;;0.90;;
11951;SDS011;6036;41.840;23.486;2022-11-20T14:22:56;3.88;;;1.60;;
11951;SDS011;6036;41.840;23.486;2022-11-20T14:25:25;7.57;;;2.67;;
11951;SDS011;6036;41.840;23.486;2022-11-20T14:27:57;3.92;;;1.70;;
11951;SDS011;6036;41.840;23.486;2022-11-20T14:30:28;2.67;;;1.02;;
11951;SDS011;6036;41.840;23.486;2022-11-20T14:33:15;5.07;;;1.60;;
11951;SDS011;6036;41.840;23.486;2022-11-20T14:35:47;4.13;;;1.23;;
11951;SDS011;6036;41.840;23.486;2022-11-20T14:38:16;2.17;;;1.17;;
11951;SDS011;6036;41.840;23.486;2022-11-20T14:40:43;5.65;;;1.70;;
11951;SDS011;6036;41.840;23.486;2022-11-20T14:45:45;8.52;;;4.25;;
11951;SDS011;6036;41.840;23.486;2022-11-20T14:50:39;8.23;;;3.50;;
11951;SDS011;6036;41.840;23.486;2022-11-20T14:53:06;20.05;;;9.48;;
11951;SDS011;6036;41.840;23.486;2022-11-20T14:55:33;10.85;;;6.57;;
11951;SDS011;6036;41.840;23.486;2022-11-20T14:58:01;4.97;;;2.58;;
11951;SDS011;6036;41.840;23.486;2022-11-20T15:00:28;6.20;;;3.30;;
11951;SDS011;6036;41.840;23.486;2022-11-20T15:02:55;7.82;;;3.60;;
11951;SDS011;6036;41.840;23.486;2022-11-20T15:05:23;8.82;;;3.30;;
11951;SDS011;6036;41.840;23.486;2022-11-20T15:07:52;4.45;;;2.85;;
11951;SDS011;6036;41.840;23.486;2022-11-20T15:10:30;6.25;;;2.92;;
11951;SDS011;6036;41.840;23.486;2022-11-20T15:12:59;5.47;;;3.20;;
11951;SDS011;6036;41.840;23.486;2022-11-20T15:18:16;11.73;;;4.60;;
11951;SDS011;6036;41.840;23.486;2022-11-20T15:20:43;5.38;;;3.05;;
11951;SDS011;6036;41.840;23.486;2022-11-20T15:23:13;10.27;;;4.45;;
11951;SDS011;6036;41.840;23.486;2022-11-20T15:25:40;41.50;;;19.52;;
11951;SDS011;6036;41.840;23.486;2022-11-20T15:28:17;29.80;;;15.88;;
11951;SDS011;6036;41.840;23.486;2022-11-20T15:30:43;35.25;;;16.17;;
11951;SDS011;6036;41.840;23.486;2022-11-20T15:33:10;10.93;;;5.30;;
11951;SDS011;6036;41.840;23.486;2022-11-20T15:35:36;8.45;;;3.33;;
11951;SDS011;6036;41.840;23.486;2022-11-20T15:38:01;5.63;;;2.70;;
11951;SDS011;6036;41.840;23.486;2022-11-20T15:40:27;3.88;;;2.70;;
11951;SDS011;6036;41.840;23.486;2022-11-20T15:42:52;7.60;;;3.25;;
11951;SDS011;6036;41.840;23.486;2022-11-20T15:45:35;4.18;;;2.75;;
11951;SDS011;6036;41.840;23.486;2022-11-20T15:48:04;7.90;;;3.70;;
11951;SDS011;6036;41.840;23.486;2022-11-20T15:50:36;5.10;;;2.67;;
11951;SDS011;6036;41.840;23.486;2022-11-20T15:53:03;3.83;;;2.50;;
11951;SDS011;6036;41.840;23.486;2022-11-20T15:55:29;5.13;;;3.17;;
11951;SDS011;6036;41.840;23.486;2022-11-20T15:57:55;6.18;;;2.55;;
11951;SDS011;6036;41.840;23.486;2022-11-20T16:00:20;6.57;;;2.72;;
11951;SDS011;6036;41.840;23.486;2022-11-20T16:02:46;8.38;;;2.60;;
11951;SDS011;6036;41.840;23.486;2022-11-20T16:05:11;5.03;;;3.58;;
11951;SDS011;6036;41.840;23.486;2022-11-20T16:07:38;5.40;;;3.42;;
11951;SDS011;6036;41.840;23.486;2022-11-20T16:10:04;6.55;;;3.90;;
11951;SDS011;6036;41.840;23.486;2022-11-20T16:12:29;10.23;;;4.15;;
11951;SDS011;6036;41.840;23.486;2022-11-20T16:15:13;6.40;;;3.13;;
11951;SDS011;6036;41.840;23.486;2022-11-20T16:17:57;6.82;;;3.80;;
11951;SDS011;6036;41.840;23.486;2022-11-20T16:20:23;7.47;;;3.03;;
11951;SDS011;6036;41.840;23.486;2022-11-20T16:22:48;4.05;;;2.33;;
11951;SDS011;6036;41.840;23.486;2022-11-20T16:25:14;6.05;;;2.28;;
11951;SDS011;6036;41.840;23.486;2022-11-20T16:27:39;6.78;;;2.30;;
11951;SDS011;6036;41.840;23.486;2022-11-20T16:30:05;4.07;;;2.03;;
11951;SDS011;6036;41.840;23.486;2022-11-20T16:32:31;10.32;;;4.90;;
11951;SDS011;6036;41.840;23.486;2022-11-20T16:34:57;6.55;;;4.00;;
11951;SDS011;6036;41.840;23.486;2022-11-20T16:37:22;5.03;;;2.63;;
11951;SDS011;6036;41.840;23.486;2022-11-20T16:39:47;6.28;;;3.00;;
11951;SDS011;6036;41.840;23.486;2022-11-20T16:42:13;6.85;;;2.90;;
11951;SDS011;6036;41.840;23.486;2022-11-20T16:44:38;4.53;;;3.00;;
11951;SDS011;6036;41.840;23.486;2022-11-20T16:47:04;5.65;;;3.03;;
11951;SDS011;6036;41.840;23.486;2022-11-20T16:49:29;7.03;;;2.35;;
11951;SDS011;6036;41.840;23.486;2022-11-20T16:51:54;4.10;;;2.53;;